createdAt,value
2023-04-06T00:01:47.467Z,85.57
2023-04-06T00:04:17.041Z,88.90
2023-04-06T00:06:48.981Z,75.67
2023-04-06T00:09:17.934Z,61.80
2023-04-06T00:11:46.982Z,70.10
2023-04-06T00:14:18.921Z,56.63
2023-04-06T00:16:48.602Z,56.73
2023-04-06T00:19:18.030Z,49.97
2023-04-06T00:21:49.382Z,50.83
2023-04-06T00:24:19.219Z,56.60
2023-04-06T00:26:47.870Z,57.50
2023-04-06T00:29:17.995Z,48.60
2023-04-06T00:31:47.542Z,48.70
2023-04-06T00:34:17.511Z,50.23
2023-04-06T00:36:48.926Z,50.33
2023-04-06T00:39:20.828Z,47.17
2023-04-06T00:41:54.422Z,55.77
2023-04-06T00:44:24.769Z,47.60
2023-04-06T00:46:53.771Z,43.50
2023-04-06T00:49:24.020Z,48.13
2023-04-06T00:51:56.064Z,49.90
2023-04-06T00:54:25.159Z,50.30
2023-04-06T00:56:54.247Z,56.03
2023-04-06T00:59:23.839Z,43.80
2023-04-06T01:01:54.298Z,50.43
2023-04-06T01:04:33.977Z,49.17
2023-04-06T01:07:05.754Z,47.83
2023-04-06T01:09:44.145Z,50.13
2023-04-06T01:12:20.633Z,56.80
2023-04-06T01:14:51.026Z,50.80
2023-04-06T01:17:21.063Z,43.80
2023-04-06T01:19:50.900Z,50.87
2023-04-06T01:22:28.568Z,46.67
2023-04-06T01:25:01.281Z,47.87
2023-04-06T01:27:37.030Z,40.27
2023-04-06T01:30:16.008Z,47.53
2023-04-06T01:32:50.249Z,56.53
2023-04-06T01:35:26.029Z,49.47
2023-04-06T01:38:07.079Z,68.43
2023-04-06T01:40:38.683Z,72.87
2023-04-06T01:43:08.971Z,57.93
2023-04-06T01:45:47.792Z,66.07
2023-04-06T01:48:21.825Z,67.50
2023-04-06T01:50:51.587Z,75.03
2023-04-06T01:53:28.509Z,70.63
2023-04-06T01:56:03.244Z,66.80
2023-04-06T01:58:35.738Z,74.47
2023-04-06T02:01:05.950Z,76.43
2023-04-06T02:03:47.502Z,67.87
2023-04-06T02:06:16.791Z,69.53
2023-04-06T02:08:47.701Z,76.50
2023-04-06T02:11:16.905Z,74.00
2023-04-06T02:13:50.040Z,73.43
2023-04-06T02:16:19.764Z,74.03
2023-04-06T02:18:49.148Z,63.63
2023-04-06T02:21:21.379Z,68.90
2023-04-06T02:23:52.245Z,66.07
2023-04-06T02:26:21.540Z,67.90
2023-04-06T02:28:50.260Z,55.23
2023-04-06T02:31:19.589Z,64.80
2023-04-06T02:33:48.968Z,68.13
2023-04-06T02:36:19.574Z,54.60
2023-04-06T02:38:48.590Z,64.50
2023-04-06T02:41:19.345Z,50.17
2023-04-06T02:43:48.392Z,52.77
2023-04-06T02:46:31.154Z,55.43
2023-04-06T02:49:01.651Z,54.03
2023-04-06T02:51:34.396Z,61.03
2023-04-06T02:54:17.412Z,56.33
2023-04-06T02:56:48.265Z,58.23
2023-04-06T02:59:18.001Z,58.97
2023-04-06T03:01:56.720Z,54.93
2023-04-06T03:04:27.139Z,57.30
2023-04-06T03:07:00.026Z,59.17
2023-04-06T03:09:39.773Z,62.17
2023-04-06T03:12:10.860Z,60.93
2023-04-06T03:15:02.984Z,66.37
2023-04-06T03:17:33.211Z,58.80
2023-04-06T03:20:06.885Z,52.77
2023-04-06T03:22:36.033Z,58.47
2023-04-06T03:25:05.197Z,61.27
2023-04-06T03:27:36.892Z,57.70
2023-04-06T03:30:08.754Z,56.50
2023-04-06T03:32:38.092Z,57.53
2023-04-06T03:35:08.321Z,63.67
2023-04-06T03:37:37.493Z,60.10
2023-04-06T03:40:09.566Z,55.53
2023-04-06T03:42:40.096Z,64.27
2023-04-06T03:45:15.487Z,80.03
2023-04-06T03:47:50.036Z,70.47
2023-04-06T03:50:20.162Z,61.07
2023-04-06T03:52:49.586Z,70.20
2023-04-06T03:55:18.784Z,72.23
2023-04-06T03:57:49.529Z,69.03
2023-04-06T04:00:18.756Z,68.27
2023-04-06T04:02:48.747Z,75.73
2023-04-06T04:05:17.902Z,76.10
2023-04-06T04:07:46.794Z,76.73
2023-04-06T04:10:15.926Z,67.97
2023-04-06T04:12:45.374Z,64.40
2023-04-06T04:15:16.372Z,74.10
2023-04-06T04:17:48.163Z,76.73
2023-04-06T04:20:17.733Z,86.20
2023-04-06T04:22:46.600Z,76.50
2023-04-06T04:25:16.208Z,70.93
2023-04-06T04:27:51.503Z,82.23
2023-04-06T04:30:24.730Z,76.07
2023-04-06T04:32:53.832Z,72.77
2023-04-06T04:35:25.228Z,82.83
2023-04-06T04:37:54.155Z,89.53
2023-04-06T04:40:23.225Z,82.67
2023-04-06T04:42:57.654Z,72.17
2023-04-06T04:45:34.452Z,74.70
2023-04-06T04:48:14.209Z,77.90
2023-04-06T04:51:00.186Z,71.53
2023-04-06T04:53:35.489Z,75.03
2023-04-06T04:56:15.262Z,85.57
2023-04-06T04:58:45.366Z,74.47
2023-04-06T05:01:17.020Z,78.63
2023-04-06T05:03:48.215Z,81.13
2023-04-06T05:06:22.514Z,80.83
2023-04-06T05:08:52.771Z,80.23
2023-04-06T05:11:23.464Z,86.27
2023-04-06T05:13:59.802Z,83.07
2023-04-06T05:16:31.803Z,86.17
2023-04-06T05:19:01.403Z,95.27
2023-04-06T05:21:38.151Z,88.20
2023-04-06T05:24:10.179Z,93.63
2023-04-06T05:26:40.778Z,101.67
2023-04-06T05:29:18.456Z,99.47
2023-04-06T05:31:50.213Z,90.20
2023-04-06T05:34:20.372Z,81.70
2023-04-06T05:36:52.916Z,89.57
2023-04-06T05:39:26.545Z,87.40
2023-04-06T05:41:57.050Z,89.63
2023-04-06T05:44:35.533Z,91.70
2023-04-06T05:47:14.492Z,86.37
2023-04-06T05:49:46.650Z,89.60
2023-04-06T05:52:23.351Z,99.30
2023-04-06T05:54:52.918Z,92.73
2023-04-06T05:57:22.210Z,91.77
2023-04-06T05:59:52.148Z,74.17
2023-04-06T06:02:25.198Z,82.57
2023-04-06T06:04:55.748Z,80.57
2023-04-06T06:07:27.414Z,82.63
2023-04-06T06:10:02.296Z,74.23
2023-04-06T06:12:38.372Z,71.37
2023-04-06T06:15:09.766Z,66.60
2023-04-06T06:17:45.212Z,69.33
2023-04-06T06:20:15.489Z,69.27
2023-04-06T06:22:46.422Z,67.20
2023-04-06T06:25:20.166Z,66.43
2023-04-06T06:27:51.144Z,67.30
2023-04-06T06:30:23.477Z,68.60
2023-04-06T06:32:55.641Z,67.40
2023-04-06T06:35:25.810Z,81.63
2023-04-06T06:37:54.629Z,68.73
2023-04-06T06:40:27.971Z,71.67
2023-04-06T06:42:58.417Z,78.83
2023-04-06T06:45:50.993Z,70.50
2023-04-06T06:48:22.214Z,73.10
2023-04-06T06:50:51.518Z,71.23
2023-04-06T06:53:20.945Z,72.80
2023-04-06T06:55:50.829Z,72.17
2023-04-06T06:58:21.446Z,73.50
2023-04-06T07:00:51.391Z,70.77
2023-04-06T07:03:22.823Z,74.33
2023-04-06T07:05:54.643Z,75.17
2023-04-06T07:08:27.060Z,75.80
2023-04-06T07:10:57.908Z,72.63
2023-04-06T07:13:29.712Z,75.97
2023-04-06T07:16:01.511Z,74.80
2023-04-06T07:18:36.035Z,76.23
2023-04-06T07:21:06.600Z,69.90
2023-04-06T07:23:35.797Z,68.30
2023-04-06T07:26:05.300Z,75.00
2023-04-06T07:28:35.400Z,70.70
2023-04-06T07:31:05.869Z,68.97
2023-04-06T07:33:37.496Z,70.90
2023-04-06T07:36:08.125Z,71.73
2023-04-06T07:38:37.689Z,70.03
2023-04-06T07:41:07.505Z,63.77
2023-04-06T07:43:37.814Z,53.73
2023-04-06T07:46:07.847Z,53.07
2023-04-06T07:48:39.478Z,52.03
2023-04-06T07:51:10.261Z,51.57
2023-04-06T07:53:42.548Z,53.30
2023-04-06T07:56:11.869Z,47.90
2023-04-06T07:58:41.493Z,31.47
2023-04-06T08:01:10.717Z,32.37
2023-04-06T08:03:41.539Z,31.07
2023-04-06T08:06:11.343Z,27.70
2023-04-06T08:08:40.529Z,30.13
2023-04-06T08:11:10.037Z,36.40
2023-04-06T08:13:39.598Z,27.33
2023-04-06T08:16:09.432Z,28.97
2023-04-06T08:18:39.083Z,25.67
2023-04-06T08:21:10.904Z,35.37
2023-04-06T08:23:39.877Z,23.43
2023-04-06T08:26:11.390Z,23.47
2023-04-06T08:28:41.243Z,21.30
2023-04-06T08:31:11.165Z,18.47
2023-04-06T08:33:41.059Z,18.60
2023-04-06T08:36:13.614Z,19.23
2023-04-06T08:38:44.612Z,12.63
2023-04-06T08:41:15.716Z,15.30
2023-04-06T08:43:47.260Z,15.73
2023-04-06T08:46:17.791Z,18.10
2023-04-06T08:48:46.835Z,15.67
2023-04-06T08:51:18.494Z,15.13
2023-04-06T08:53:48.454Z,15.80
2023-04-06T08:56:18.354Z,17.00
2023-04-06T08:58:48.637Z,13.40
2023-04-06T09:01:23.121Z,10.85
2023-04-06T09:03:53.711Z,16.08
2023-04-06T09:06:24.528Z,15.35
2023-04-06T09:08:54.489Z,12.93
2023-04-06T09:11:24.455Z,15.63
2023-04-06T09:13:55.475Z,15.18
2023-04-06T09:16:25.435Z,15.00
2023-04-06T09:18:55.042Z,13.27
2023-04-06T09:21:26.120Z,15.02
2023-04-06T09:24:02.940Z,14.07
2023-04-06T09:26:35.031Z,11.40
2023-04-06T09:29:05.147Z,12.93
2023-04-06T09:31:37.429Z,15.40
2023-04-06T09:34:07.186Z,15.73
2023-04-06T09:36:39.793Z,14.18
2023-04-06T09:39:09.602Z,14.63
2023-04-06T09:41:39.921Z,16.60
2023-04-06T09:44:10.323Z,12.45
2023-04-06T09:46:57.805Z,12.48
2023-04-06T09:49:32.138Z,12.15
2023-04-06T09:52:05.894Z,14.45
2023-04-06T09:54:35.601Z,12.65
2023-04-06T09:57:13.265Z,13.02
2023-04-06T09:59:53.527Z,13.82
2023-04-06T10:02:31.337Z,13.07
2023-04-06T10:05:07.053Z,15.00
2023-04-06T10:07:49.425Z,19.38
2023-04-06T10:10:28.645Z,11.25
2023-04-06T10:12:59.055Z,13.80
2023-04-06T10:15:28.695Z,10.75
2023-04-06T10:17:58.678Z,9.80
2023-04-06T10:20:34.432Z,8.57
2023-04-06T10:23:10.847Z,9.57
2023-04-06T10:25:41.202Z,10.07
2023-04-06T10:28:12.033Z,9.32
2023-04-06T10:30:45.961Z,7.82
2023-04-06T10:33:19.843Z,8.80
2023-04-06T10:35:49.447Z,7.40
2023-04-06T10:38:23.978Z,7.22
2023-04-06T10:40:55.957Z,9.40
2023-04-06T10:43:27.053Z,9.20
2023-04-06T10:46:02.841Z,8.48
2023-04-06T10:48:41.766Z,9.35
2023-04-06T10:51:14.408Z,10.02
2023-04-06T10:53:46.675Z,11.27
2023-04-06T10:56:18.898Z,18.80
2023-04-06T10:58:49.415Z,10.82
2023-04-06T11:01:20.434Z,15.63
2023-04-06T11:03:52.422Z,11.40
2023-04-06T11:06:24.510Z,11.30
2023-04-06T11:08:58.500Z,11.07
2023-04-06T11:11:29.811Z,12.77
2023-04-06T11:14:01.543Z,12.15
2023-04-06T11:16:32.844Z,11.70
2023-04-06T11:19:04.412Z,10.15
2023-04-06T11:21:38.092Z,10.68
2023-04-06T11:24:11.577Z,21.70
2023-04-06T11:26:42.429Z,9.65
2023-04-06T11:29:12.106Z,14.13
2023-04-06T11:31:46.000Z,9.45
2023-04-06T11:34:19.145Z,13.43
2023-04-06T11:36:49.970Z,11.18
2023-04-06T11:39:25.288Z,15.90
2023-04-06T11:41:55.646Z,13.50
2023-04-06T11:44:35.232Z,14.13
2023-04-06T11:47:05.486Z,12.90
2023-04-06T11:49:36.586Z,16.15
2023-04-06T11:52:19.273Z,16.67
2023-04-06T11:54:51.841Z,14.38
2023-04-06T11:57:22.490Z,12.25
2023-04-06T11:59:51.871Z,11.55
2023-04-06T12:02:21.564Z,11.43
2023-04-06T12:04:51.166Z,11.20
2023-04-06T12:07:20.965Z,15.27
2023-04-06T12:09:53.226Z,11.30
2023-04-06T12:12:24.926Z,14.48
2023-04-06T12:14:54.361Z,10.50
2023-04-06T12:17:24.928Z,23.45
2023-04-06T12:19:54.404Z,12.40
2023-04-06T12:22:23.727Z,14.27
2023-04-06T12:24:54.873Z,12.15
2023-04-06T12:27:24.608Z,11.55
2023-04-06T12:29:53.946Z,9.70
2023-04-06T12:32:23.132Z,10.18
2023-04-06T12:34:53.904Z,10.82
2023-04-06T12:37:23.292Z,10.90
2023-04-06T12:39:55.356Z,13.00
2023-04-06T12:42:25.118Z,10.63
2023-04-06T12:44:54.159Z,8.32
2023-04-06T12:47:24.124Z,12.65
2023-04-06T12:49:53.441Z,14.63
2023-04-06T12:52:22.852Z,9.27
2023-04-06T12:54:52.952Z,6.68
2023-04-06T12:57:23.897Z,8.80
2023-04-06T12:59:54.304Z,15.70
2023-04-06T13:02:23.723Z,7.97
2023-04-06T13:04:53.262Z,8.38
2023-04-06T13:07:22.394Z,7.63
2023-04-06T13:09:52.253Z,9.75
2023-04-06T13:12:24.066Z,8.52
2023-04-06T13:14:53.992Z,14.80
2023-04-06T13:17:24.024Z,12.00
2023-04-06T13:19:53.027Z,7.45
2023-04-06T13:22:22.076Z,10.48
2023-04-06T13:24:51.302Z,13.50
2023-04-06T13:27:20.827Z,9.23
2023-04-06T13:29:52.024Z,6.95
2023-04-06T13:32:21.683Z,8.65
2023-04-06T13:34:50.740Z,9.68
2023-04-06T13:37:20.516Z,8.95
2023-04-06T13:39:49.422Z,9.57
2023-04-06T13:42:18.915Z,8.40
2023-04-06T13:44:49.070Z,15.02
2023-04-06T13:47:19.901Z,13.63
2023-04-06T13:49:49.069Z,9.30
2023-04-06T13:52:18.353Z,11.10
2023-04-06T13:54:47.369Z,9.32
2023-04-06T13:57:16.622Z,8.30
2023-04-06T13:59:46.175Z,9.70
2023-04-06T14:02:15.658Z,9.25
2023-04-06T14:04:46.885Z,10.68
2023-04-06T14:07:16.061Z,10.52
2023-04-06T14:09:45.367Z,10.63
2023-04-06T14:12:14.268Z,10.20
2023-04-06T14:14:44.056Z,8.82
2023-04-06T14:17:13.281Z,9.18
2023-04-06T14:19:43.209Z,9.45
2023-04-06T14:22:14.764Z,9.25
2023-04-06T14:24:44.402Z,11.57
2023-04-06T14:27:14.013Z,11.50
2023-04-06T14:29:43.189Z,10.45
2023-04-06T14:32:13.151Z,10.00
2023-04-06T14:34:42.479Z,9.68
2023-04-06T14:37:13.721Z,15.30
2023-04-06T14:39:43.889Z,9.50
2023-04-06T14:42:12.581Z,15.20
2023-04-06T14:44:44.273Z,12.02
2023-04-06T14:47:16.901Z,9.20
2023-04-06T14:49:46.558Z,9.98
2023-04-06T14:52:17.770Z,8.02
2023-04-06T14:54:47.403Z,20.10
2023-04-06T14:57:16.438Z,7.72
2023-04-06T14:59:45.534Z,9.38
2023-04-06T15:02:15.018Z,9.32
2023-04-06T15:04:44.280Z,9.20
2023-04-06T15:07:14.072Z,10.05
2023-04-06T15:09:45.126Z,16.45
2023-04-06T15:12:14.527Z,10.98
2023-04-06T15:14:43.634Z,32.63
2023-04-06T15:17:12.718Z,8.53
2023-04-06T15:19:42.290Z,6.93
2023-04-06T15:22:13.292Z,13.07
2023-04-06T15:24:43.731Z,9.23
2023-04-06T15:27:13.323Z,12.37
2023-04-06T15:29:42.350Z,14.43
2023-04-06T15:32:11.557Z,11.17
2023-04-06T15:34:41.243Z,11.57
2023-04-06T15:37:10.445Z,11.10
2023-04-06T15:39:40.065Z,11.97
2023-04-06T15:42:10.770Z,10.33
2023-04-06T15:44:39.832Z,19.80
2023-04-06T15:47:08.911Z,9.37
2023-04-06T15:49:38.488Z,27.30
2023-04-06T15:52:07.807Z,27.57
2023-04-06T15:54:41.399Z,15.80
2023-04-06T15:57:12.675Z,16.07
2023-04-06T15:59:42.308Z,17.97
2023-04-06T16:02:12.149Z,13.27
2023-04-06T16:04:41.084Z,20.83
2023-04-06T16:07:10.352Z,12.23
2023-04-06T16:09:40.832Z,14.10
2023-04-06T16:12:12.213Z,16.00
2023-04-06T16:14:41.435Z,20.03
2023-04-06T16:17:10.847Z,12.40
2023-04-06T16:19:40.436Z,10.23
2023-04-06T16:22:09.932Z,12.70
2023-04-06T16:24:40.775Z,11.53
2023-04-06T16:27:12.851Z,12.53
2023-04-06T16:29:45.799Z,11.90
2023-04-06T16:32:16.209Z,12.67
2023-04-06T16:34:47.301Z,10.07
2023-04-06T16:37:17.265Z,14.30
2023-04-06T16:39:46.105Z,13.17
2023-04-06T16:42:18.018Z,11.87
2023-04-06T16:44:48.770Z,14.37
2023-04-06T16:47:18.225Z,16.20
2023-04-06T16:49:47.410Z,12.30
2023-04-06T16:52:16.639Z,14.30
2023-04-06T16:54:45.623Z,14.50
2023-04-06T16:57:16.042Z,25.63
2023-04-06T16:59:45.615Z,14.53
2023-04-06T17:02:14.678Z,14.13
2023-04-06T17:04:44.001Z,27.07
2023-04-06T17:07:13.317Z,17.03
2023-04-06T17:09:42.485Z,16.63
2023-04-06T17:12:13.918Z,12.27
2023-04-06T17:14:45.309Z,15.10
2023-04-06T17:17:14.629Z,14.97
2023-04-06T17:19:43.763Z,16.33
2023-04-06T17:22:13.235Z,24.27
2023-04-06T17:24:42.485Z,38.43
2023-04-06T17:27:12.152Z,20.23
2023-04-06T17:29:41.239Z,28.90
2023-04-06T17:32:13.597Z,20.30
2023-04-06T17:34:46.886Z,24.73
2023-04-06T17:37:16.362Z,14.50
2023-04-06T17:39:45.082Z,13.77
2023-04-06T17:42:14.861Z,19.47
2023-04-06T17:44:44.067Z,19.70
2023-04-06T17:47:14.697Z,14.77
2023-04-06T17:49:44.157Z,22.57
2023-04-06T17:52:13.502Z,18.30
2023-04-06T17:54:42.436Z,19.43
2023-04-06T17:57:12.051Z,19.17
2023-04-06T17:59:43.908Z,18.33
2023-04-06T18:02:17.053Z,22.97
2023-04-06T18:04:45.924Z,33.17
2023-04-06T18:07:14.819Z,23.60
2023-04-06T18:09:44.129Z,22.30
2023-04-06T18:12:12.948Z,30.27
2023-04-06T18:14:42.484Z,33.93
2023-04-06T18:17:11.863Z,17.67
2023-04-06T18:19:42.977Z,27.10
2023-04-06T18:22:12.717Z,25.47
2023-04-06T18:24:43.420Z,25.63
2023-04-06T18:27:13.674Z,21.10
2023-04-06T18:29:44.626Z,21.07
2023-04-06T18:32:16.143Z,21.60
2023-04-06T18:34:47.586Z,21.63
2023-04-06T18:37:17.120Z,20.57
2023-04-06T18:39:46.209Z,21.77
2023-04-06T18:42:15.302Z,18.57
2023-04-06T18:44:44.294Z,29.53
2023-04-06T18:47:13.767Z,24.53
2023-04-06T18:49:42.963Z,18.60
2023-04-06T18:52:14.807Z,25.50
2023-04-06T18:54:43.815Z,23.47
2023-04-06T18:57:14.148Z,21.97
2023-04-06T18:59:43.381Z,28.63
2023-04-06T19:02:14.956Z,19.47
2023-04-06T19:04:44.867Z,19.33
2023-04-06T19:07:15.599Z,18.10
2023-04-06T19:09:45.275Z,18.33
2023-04-06T19:12:14.589Z,21.10
2023-04-06T19:14:51.706Z,17.73
2023-04-06T19:17:21.563Z,21.43
2023-04-06T19:19:50.862Z,19.70
2023-04-06T19:22:22.074Z,27.93
2023-04-06T19:24:51.783Z,25.17
2023-04-06T19:27:21.911Z,27.00
2023-04-06T19:29:51.700Z,22.77
2023-04-06T19:32:21.236Z,25.63
2023-04-06T19:34:50.671Z,24.17
2023-04-06T19:37:22.270Z,23.70
2023-04-06T19:39:51.624Z,23.23
2023-04-06T19:42:22.197Z,30.80
2023-04-06T19:44:51.565Z,36.60
2023-04-06T19:47:21.851Z,27.73
2023-04-06T19:49:52.048Z,30.77
2023-04-06T19:52:23.592Z,35.07
2023-04-06T19:54:52.948Z,28.07
2023-04-06T19:57:22.766Z,30.13
2023-04-06T19:59:52.105Z,35.20
2023-04-06T20:02:21.785Z,38.30
2023-04-06T20:04:51.741Z,35.30
2023-04-06T20:07:22.496Z,44.23
2023-04-06T20:09:52.428Z,32.87
2023-04-06T20:12:21.701Z,35.00
2023-04-06T20:14:51.820Z,36.73
2023-04-06T20:17:21.116Z,34.40
2023-04-06T20:19:50.374Z,35.63
2023-04-06T20:22:19.847Z,36.50
2023-04-06T20:24:50.775Z,34.50
2023-04-06T20:27:20.657Z,38.50
2023-04-06T20:29:50.192Z,41.43
2023-04-06T20:32:21.422Z,36.23
2023-04-06T20:34:51.045Z,34.17
2023-04-06T20:37:21.672Z,39.13
2023-04-06T20:39:52.832Z,37.30
2023-04-06T20:42:24.563Z,44.03
2023-04-06T20:44:54.164Z,40.60
2023-04-06T20:47:23.880Z,32.40
2023-04-06T20:49:53.646Z,40.97
2023-04-06T20:52:23.340Z,44.67
2023-04-06T20:54:55.162Z,46.30
2023-04-06T20:57:25.037Z,50.43
2023-04-06T20:59:55.008Z,39.47
2023-04-06T21:02:24.668Z,37.30
2023-04-06T21:04:54.209Z,36.30
2023-04-06T21:07:23.514Z,39.37
2023-04-06T21:09:54.324Z,34.80
2023-04-06T21:12:23.456Z,38.43
2023-04-06T21:14:53.612Z,41.10
2023-04-06T21:17:22.939Z,36.63
2023-04-06T21:19:52.551Z,37.70
2023-04-06T21:22:21.511Z,39.07
2023-04-06T21:24:50.401Z,36.33
2023-04-06T21:27:21.428Z,38.83
2023-04-06T21:29:50.698Z,39.23
2023-04-06T21:32:19.994Z,41.80
2023-04-06T21:34:49.296Z,37.53
2023-04-06T21:37:19.797Z,42.97
2023-04-06T21:39:49.409Z,37.63
2023-04-06T21:42:20.433Z,43.87
2023-04-06T21:44:52.127Z,33.33
2023-04-06T21:47:21.466Z,33.73
2023-04-06T21:49:50.920Z,35.77
2023-04-06T21:52:20.344Z,38.53
2023-04-06T21:54:49.351Z,34.37
2023-04-06T21:57:20.082Z,41.40
2023-04-06T21:59:49.390Z,38.07
2023-04-06T22:02:18.837Z,33.43
2023-04-06T22:04:49.000Z,33.57
2023-04-06T22:07:19.018Z,36.40
2023-04-06T22:09:51.998Z,33.70
2023-04-06T22:12:24.081Z,41.23
2023-04-06T22:14:53.621Z,37.40
2023-04-06T22:17:22.492Z,34.40
2023-04-06T22:19:53.153Z,31.20
2023-04-06T22:22:22.498Z,29.57
2023-04-06T22:24:51.691Z,32.97
2023-04-06T22:27:20.970Z,33.83
2023-04-06T22:29:51.942Z,35.07
2023-04-06T22:32:21.440Z,34.13
2023-04-06T22:34:50.333Z,39.13
2023-04-06T22:37:19.392Z,31.17
2023-04-06T22:39:48.486Z,27.27
2023-04-06T22:42:17.590Z,22.80
2023-04-06T22:44:46.310Z,21.83
2023-04-06T22:47:17.328Z,23.60
2023-04-06T22:49:46.771Z,22.47
2023-04-06T22:52:15.859Z,26.33
2023-04-06T22:54:44.883Z,22.83
2023-04-06T22:57:13.814Z,22.07
2023-04-06T22:59:43.910Z,22.47
2023-04-06T23:02:14.675Z,19.37
2023-04-06T23:04:46.617Z,20.70
2023-04-06T23:07:16.161Z,21.57
2023-04-06T23:09:46.102Z,18.63
2023-04-06T23:12:15.148Z,21.97
2023-04-06T23:14:44.180Z,19.47
2023-04-06T23:17:12.972Z,18.73
2023-04-06T23:19:41.911Z,23.40
2023-04-06T23:22:12.731Z,24.50
2023-04-06T23:24:41.726Z,25.50
2023-04-06T23:27:10.980Z,23.57
2023-04-06T23:29:40.234Z,23.63
2023-04-06T23:32:09.354Z,23.97
2023-04-06T23:34:38.593Z,22.17
2023-04-06T23:37:07.769Z,23.33
2023-04-06T23:39:39.818Z,26.37
2023-04-06T23:42:09.146Z,27.47
2023-04-06T23:44:38.355Z,25.23
2023-04-06T23:47:07.866Z,26.03
2023-04-06T23:49:36.864Z,24.77
2023-04-06T23:52:06.869Z,28.60
2023-04-06T23:54:35.954Z,27.60
2023-04-06T23:57:06.660Z,22.70
2023-04-06T23:59:35.595Z,22.87
